Taconey, Louisiana
Current Conditions -  °F | °C
As of 6:15 PM on Friday 28 Nov 2014 (Local Time) from KHEZ Reporting Station
Clear Clear  
Wind Chill: 45°   Ceiling: Unl
Heat Index: 48°   Visibility: 10mi
Dew Point: 30°   Wind: 7mph
Humidity: 50%   Direction: 160°SSE
Pressure: 30.23"   Gusts: NA
Location:  31.5712°N, 91.5148°W
Report Text: KHEZ 290015Z AUTO 16006KT 10SM CLR 09/M01 A3023 RMK AO1
Loading
Personal Weather Stations






























Interactive Weather Map New forecast layout! Learn more

10-Day Weather Forecast

Advertisements
Track Severe Weather on mobile